Time;durP1;ratioP1;P1;durP2;ratioP2;P2;SDS_P1;SDS_P2;PMS_P1;PMS_P2;Temp;Humidity;BMP_temperature;BMP_pressure;BME280_temperature;BME280_humidity;BME280_pressure;Samples;Min_cycle;Max_cycle;Signal;HPM_P1;HPM_P2
2023/06/05 00:01:34;;;;;;;;;;;;;;;;;;5111448;28;20420;-64
2023/06/05 00:04:00;;;;;;;;;;;;;;;;;;5111014;28;19908;-63
2023/06/05 00:06:26;;;;;;;;;;;;;;;;;;5111288;28;19908;-64
2023/06/05 00:08:52;;;;;;;;;;;;;;;;;;5111258;28;19969;-64
2023/06/05 00:11:18;;;;;;;;;;;;;;;;;;5110811;28;19908;-64
2023/06/05 00:13:44;;;;;;;;;;;;;;;;;;5111221;28;20002;-64
2023/06/05 00:16:10;;;;;;;;;;;;;;;;;;5110834;28;19912;-64
2023/06/05 00:18:36;;;;;;;;;;;;;;;;;;5110984;28;20003;-64
2023/06/05 00:21:03;;;;;;;;;;;;;;;;;;5111477;28;19909;-63
2023/06/05 00:23:29;;;;;;;;;;;;;;;;;;5110772;28;19958;-63
2023/06/05 00:28:59;;;;;;;;;;;;;;;;;;5112313;27;19922;-63
2023/06/05 00:31:25;;;;;;;;;;;;;;;;;;5110086;28;20342;-63
2023/06/05 00:33:51;;;;;;;;;;;;;;;;;;5110400;28;19908;-63
2023/06/05 00:36:18;;;;;;;;;;;;;;;;;;5111852;28;19908;-64
2023/06/05 00:38:45;;;;;;;;;;;;;;;;;;5111157;28;20308;-63
2023/06/05 00:41:10;;;;;;;;;;;;;;;;;;5110341;28;19915;-63
2023/06/05 00:43:37;;;;;;;;;;;;;;;;;;5111547;28;19908;-63
2023/06/05 00:46:54;;;;;;;;;;;;;;;;;;5091434;27;19916;-63
2023/06/05 00:49:20;;;;;;;;;;;;;;;;;;5091387;28;19999;-63
2023/06/05 00:52:22;;;;;;;;;;;;;;;;;;5111583;27;19922;-64
2023/06/05 00:55:36;;;;;;;;;;;;;;;;;;5111942;27;19922;-63
2023/06/05 00:59:25;;;;;;;;;;;;;;;;;;5091505;28;19916;-63
2023/06/05 01:05:17;;;;;;;;;;;;;;;;;;5112148;27;19916;-62
2023/06/05 01:07:43;;;;;;;;;;;;;;;;;;5111751;28;19957;-63
2023/06/05 01:10:42;;;;;;;;;;;;;;;;;;5111904;27;19938;-63
2023/06/05 01:13:53;;;;;;;;;;;;;;;;;;5091034;28;19917;-63
2023/06/05 01:18:19;;;;;;;;;;;;;;;;;;5112210;27;20277;-63
2023/06/05 01:22:54;;;;;;;;;;;;;;;;;;5111813;27;19938;-63
2023/06/05 01:26:09;;;;;;;;;;;;;;;;;;5091964;28;19920;-62
2023/06/05 01:28:35;;;;;;;;;;;;;;;;;;5090976;28;19912;-63
2023/06/05 01:33:05;;;;;;;;;;;;;;;;;;5112548;27;19938;-63
2023/06/05 01:35:33;;;;;;;;;;;;;;;;;;5111475;28;19912;-63
2023/06/05 01:41:20;;;;;;;;;;;;;;;;;;5111860;27;20264;-63
2023/06/05 01:43:47;;;;;;;;;;;;;;;;;;5111752;28;19918;-63
2023/06/05 01:46:13;;;;;;;;;;;;;;;;;;5111706;28;19912;-63
2023/06/05 01:48:39;;;;;;;;;;;;;;;;;;5111427;28;19908;-63
2023/06/05 01:51:42;;;;;;;;;;;;;;;;;;5071741;28;19916;-62
2023/06/05 01:54:08;;;;;;;;;;;;;;;;;;5071103;28;20015;-63
2023/06/05 01:56:36;;;;;;;;;;;;;;;;;;5070770;28;19909;-63
2023/06/05 01:59:06;;;;;;;;;;;;;;;;;;5071093;28;19913;-63
2023/06/05 02:01:32;;;;;;;;;;;;;;;;;;5069387;28;19913;-65
2023/06/05 02:04:09;;;;;;;;;;;;;;;;;;5112169;27;19916;-65
2023/06/05 02:06:41;;;;;;;;;;;;;;;;;;5110456;28;20016;-63
2023/06/05 02:12:37;;;;;;;;;;;;;;;;;;5112372;27;19916;-63
2023/06/05 02:15:03;;;;;;;;;;;;;;;;;;5110435;28;19912;-63
2023/06/05 02:17:29;;;;;;;;;;;;;;;;;;5109999;28;19908;-63
2023/06/05 02:19:55;;;;;;;;;;;;;;;;;;5110371;28;19915;-63
2023/06/05 02:22:58;;;;;;;;;;;;;;;;;;5111579;27;19916;-64
2023/06/05 02:25:28;;;;;;;;;;;;;;;;;;5111729;28;20423;-63
2023/06/05 02:27:54;;;;;;;;;;;;;;;;;;5110387;28;20276;-63
2023/06/05 02:30:20;;;;;;;;;;;;;;;;;;5110119;28;19908;-63
2023/06/05 02:32:46;;;;;;;;;;;;;;;;;;5111659;28;20320;-63
2023/06/05 02:35:12;;;;;;;;;;;;;;;;;;5111590;28;19935;-63
2023/06/05 02:37:43;;;;;;;;;;;;;;;;;;5111054;28;19919;-64
2023/06/05 02:40:09;;;;;;;;;;;;;;;;;;5111531;28;19952;-64
2023/06/05 02:42:35;;;;;;;;;;;;;;;;;;5111338;28;19916;-64
2023/06/05 02:46:53;;;;;;;;;;;;;;;;;;5091491;28;19922;-63
2023/06/05 02:49:18;;;;;;;;;;;;;;;;;;5091410;28;20350;-63
2023/06/05 02:56:45;;;;;;;;;;;;;;;;;;5112192;27;19922;-65
2023/06/05 03:00:37;;;;;;;;;;;;;;;;;;5092221;28;20273;-63
2023/06/05 03:03:26;;;;;;;;;;;;;;;;;;5112456;27;20291;-64
2023/06/05 03:05:52;;;;;;;;;;;;;;;;;;5111419;28;19990;-63
2023/06/05 03:08:32;;;;;;;;;;;;;;;;;;5092150;28;20374;-63
2023/06/05 03:10:58;;;;;;;;;;;;;;;;;;5091370;28;19912;-63
2023/06/05 03:15:17;;;;;;;;;;;;;;;;;;5112522;27;19916;-65
2023/06/05 03:17:44;;;;;;;;;;;;;;;;;;5111764;28;19918;-62
2023/06/05 03:22:01;;;;;;;;;;;;;;;;;;5112255;27;19916;-63
2023/06/05 03:24:27;;;;;;;;;;;;;;;;;;5111795;28;20007;-63
2023/06/05 03:26:53;;;;;;;;;;;;;;;;;;5111360;28;19908;-63
2023/06/05 03:29:20;;;;;;;;;;;;;;;;;;5110401;28;19915;-63
2023/06/05 03:31:46;;;;;;;;;;;;;;;;;;5110357;28;19955;-63
2023/06/05 03:35:36;;;;;;;;;;;;;;;;;;5112423;27;19923;-65
2023/06/05 03:38:02;;;;;;;;;;;;;;;;;;5110504;28;20002;-65
2023/06/05 03:40:28;;;;;;;;;;;;;;;;;;5111334;28;20433;-63
2023/06/05 03:42:54;;;;;;;;;;;;;;;;;;5111654;28;19915;-63
2023/06/05 03:45:20;;;;;;;;;;;;;;;;;;5111508;28;19908;-63
2023/06/05 03:47:48;;;;;;;;;;;;;;;;;;5111227;28;20016;-63
2023/06/05 03:50:14;;;;;;;;;;;;;;;;;;5111523;28;19912;-63
2023/06/05 03:55:52;;;;;;;;;;;;;;;;;;5152638;27;19915;-62
2023/06/05 03:58:19;;;;;;;;;;;;;;;;;;5153174;27;19934;-65
2023/06/05 04:00:44;;;;;;;;;;;;;;;;;;5152869;27;19907;-65
2023/06/05 04:03:10;;;;;;;;;;;;;;;;;;5152462;27;19914;-64
2023/06/05 04:05:36;;;;;;;;;;;;;;;;;;5152829;27;19917;-65
2023/06/05 04:08:03;;;;;;;;;;;;;;;;;;5152385;27;19914;-65
2023/06/05 04:10:29;;;;;;;;;;;;;;;;;;5152724;27;19911;-65
2023/06/05 04:15:44;;;;;;;;;;;;;;;;;;5111881;27;20295;-64
2023/06/05 04:18:41;;;;;;;;;;;;;;;;;;4969827;28;19919;-63
2023/06/05 04:21:07;;;;;;;;;;;;;;;;;;4969227;28;19968;-63
2023/06/05 04:25:05;;;;;;;;;;;;;;;;;;5112217;27;19916;-63
2023/06/05 04:27:31;;;;;;;;;;;;;;;;;;5111723;28;20431;-63
2023/06/05 04:29:57;;;;;;;;;;;;;;;;;;5111202;28;19908;-63
2023/06/05 04:32:23;;;;;;;;;;;;;;;;;;5110321;28;19908;-63
2023/06/05 04:34:50;;;;;;;;;;;;;;;;;;5111487;28;19951;-63
2023/06/05 04:37:16;;;;;;;;;;;;;;;;;;5111077;28;19977;-63
2023/06/05 04:39:43;;;;;;;;;;;;;;;;;;5111481;28;19912;-64
2023/06/05 04:42:09;;;;;;;;;;;;;;;;;;5112032;28;19908;-64
2023/06/05 04:45:36;;;;;;;;;;;;;;;;;;5091935;27;19923;-65
2023/06/05 04:48:01;;;;;;;;;;;;;;;;;;5091266;28;19995;-65
2023/06/05 04:51:07;;;;;;;;;;;;;;;;;;5025005;28;19918;-64
2023/06/05 04:53:33;;;;;;;;;;;;;;;;;;5030581;28;19949;-64
2023/06/05 04:56:02;;;;;;;;;;;;;;;;;;5031162;28;19953;-61
2023/06/05 04:58:28;;;;;;;;;;;;;;;;;;5026942;28;19932;-61
2023/06/05 05:00:55;;;;;;;;;;;;;;;;;;5030553;28;19960;-61
2023/06/05 05:03:21;;;;;;;;;;;;;;;;;;5030962;28;20282;-61
2023/06/05 05:05:47;;;;;;;;;;;;;;;;;;5030151;28;19913;-60
2023/06/05 05:10:44;;;;;;;;;;;;;;;;;;5111347;27;19923;-60
2023/06/05 05:13:29;;;;;;;;;;;;;;;;;;5111120;27;19916;-61
2023/06/05 05:15:55;;;;;;;;;;;;;;;;;;5110663;28;20019;-62
2023/06/05 05:18:49;;;;;;;;;;;;;;;;;;5108822;27;20292;-61
2023/06/05 05:21:17;;;;;;;;;;;;;;;;;;5090080;28;19921;-63
2023/06/05 05:23:43;;;;;;;;;;;;;;;;;;5086776;28;20371;-62
2023/06/05 05:26:08;;;;;;;;;;;;;;;;;;5088004;28;19920;-63
2023/06/05 05:31:05;;;;;;;;;;;;;;;;;;5108995;27;19920;-60
2023/06/05 05:33:31;;;;;;;;;;;;;;;;;;5086501;28;20018;-63
2023/06/05 05:35:57;;;;;;;;;;;;;;;;;;5101050;28;20615;-65
2023/06/05 05:38:23;;;;;;;;;;;;;;;;;;5092400;28;19924;-64
2023/06/05 05:40:49;;;;;;;;;;;;;;;;;;5090139;28;19919;-66
2023/06/05 05:43:15;;;;;;;;;;;;;;;;;;5099615;28;20002;-66
2023/06/05 05:48:06;;;;;;;;;;;;;;;;;;5085839;27;19935;-64
2023/06/05 05:52:28;;;;;;;;;;;;;;;;;;5118320;27;19916;-67
2023/06/05 05:54:54;;;;;;;;;;;;;;;;;;5119912;27;19932;-66
2023/06/05 05:59:28;;;;;;;;;;;;;;;;;;5023628;28;19943;-65
2023/06/05 06:09:14;;;;;;;;;;;;;;;;;;5110975;27;19915;-65
2023/06/05 06:15:11;;;;;;;;;;;;;;;;;;5112504;27;20025;-65
2023/06/05 06:17:37;;;;;;;;;;;;;;;;;;5111698;27;19916;-65
2023/06/05 06:20:03;;;;;;;;;;;;;;;;;;5122258;28;20454;-65
2023/06/05 06:22:29;;;;;;;;;;;;;;;;;;5119487;27;20485;-64
2023/06/05 06:24:56;;;;;;;;;;;;;;;;;;5107888;28;19912;-64
2023/06/05 06:27:22;;;;;;;;;;;;;;;;;;5111067;27;19912;-64
2023/06/05 06:29:48;;;;;;;;;;;;;;;;;;5115355;27;19928;-65
2023/06/05 06:32:14;;;;;;;;;;;;;;;;;;5108828;28;19912;-65
2023/06/05 06:34:40;;;;;;;;;;;;;;;;;;5123292;27;20373;-64
2023/06/05 06:37:06;;;;;;;;;;;;;;;;;;5116037;27;20364;-64
2023/06/05 06:40:49;;;;;;;;;;;;;;;;;;5135197;27;19938;-63
2023/06/05 06:43:15;;;;;;;;;;;;;;;;;;5124680;28;19980;-63
2023/06/05 06:45:41;;;;;;;;;;;;;;;;;;5115330;28;20283;-64
2023/06/05 06:48:07;;;;;;;;;;;;;;;;;;5097393;28;19920;-64
2023/06/05 06:50:33;;;;;;;;;;;;;;;;;;5115286;28;19912;-64
2023/06/05 06:53:01;;;;;;;;;;;;;;;;;;5116700;28;20402;-65
2023/06/05 06:55:27;;;;;;;;;;;;;;;;;;5091820;28;19924;-65
2023/06/05 06:57:53;;;;;;;;;;;;;;;;;;5110987;28;19973;-65
2023/06/05 07:01:24;;;;;;;;;;;;;;;;;;5125060;27;21983;-65
2023/06/05 07:04:12;;;;;;;;;;;;;;;;;;5127197;27;19924;-63
2023/06/05 07:10:37;;;;;;;;;;;;;;;;;;5084046;27;19954;-62
2023/06/05 07:13:03;;;;;;;;;;;;;;;;;;5081408;28;20253;-62
2023/06/05 07:15:28;;;;;;;;;;;;;;;;;;5081201;28;19966;-62
2023/06/05 07:17:55;;;;;;;;;;;;;;;;;;5073459;28;19913;-62
2023/06/05 07:20:21;;;;;;;;;;;;;;;;;;5082376;28;19970;-63
2023/06/05 07:22:46;;;;;;;;;;;;;;;;;;5083568;28;19947;-63
2023/06/05 07:25:14;;;;;;;;;;;;;;;;;;5082818;28;19957;-63
2023/06/05 07:27:40;;;;;;;;;;;;;;;;;;5081817;28;19913;-62
2023/06/05 07:30:06;;;;;;;;;;;;;;;;;;5079367;28;19928;-62
2023/06/05 07:32:32;;;;;;;;;;;;;;;;;;5082411;28;19982;-62
2023/06/05 07:34:58;;;;;;;;;;;;;;;;;;5081533;28;19919;-61
2023/06/05 07:37:24;;;;;;;;;;;;;;;;;;5080293;28;19956;-60
2023/06/05 07:39:51;;;;;;;;;;;;;;;;;;5080555;28;19922;-62
2023/06/05 07:42:17;;;;;;;;;;;;;;;;;;5076610;28;20341;-61
2023/06/05 07:44:43;;;;;;;;;;;;;;;;;;5076227;28;19912;-61
2023/06/05 07:47:09;;;;;;;;;;;;;;;;;;5073926;28;20535;-66
2023/06/05 07:49:34;;;;;;;;;;;;;;;;;;5092138;28;20559;-65
2023/06/05 07:54:04;;;;;;;;;;;;;;;;;;5105356;27;19950;-59
2023/06/05 07:56:31;;;;;;;;;;;;;;;;;;5126629;27;20533;-59
2023/06/05 07:58:57;;;;;;;;;;;;;;;;;;5124712;27;19946;-60
2023/06/05 08:01:23;;;;;;;;;;;;;;;;;;5117135;28;19955;-60
2023/06/05 08:03:50;;;;;;;;;;;;;;;;;;5112645;28;20367;-62
2023/06/05 08:06:47;;;;;;;;;;;;;;;;;;5084680;27;20465;-60
2023/06/05 08:09:13;;;;;;;;;;;;;;;;;;5062385;28;19966;-60
2023/06/05 08:11:41;;;;;;;;;;;;;;;;;;5063929;28;19909;-60
2023/06/05 08:14:07;;;;;;;;;;;;;;;;;;5063643;28;20003;-61
2023/06/05 08:16:33;;;;;;;;;;;;;;;;;;5054033;28;19915;-61
2023/06/05 08:18:59;;;;;;;;;;;;;;;;;;5060858;28;19920;-60
2023/06/05 08:21:25;;;;;;;;;;;;;;;;;;5055303;28;20393;-59
2023/06/05 08:23:51;;;;;;;;;;;;;;;;;;5059166;28;19956;-59
2023/06/05 08:26:17;;;;;;;;;;;;;;;;;;5058679;28;20594;-61
2023/06/05 08:31:05;;;;;;;;;;;;;;;;;;5083140;27;20439;-62
2023/06/05 08:33:31;;;;;;;;;;;;;;;;;;5060842;28;19935;-62
2023/06/05 08:35:57;;;;;;;;;;;;;;;;;;5064023;28;20023;-62
2023/06/05 08:38:23;;;;;;;;;;;;;;;;;;5063629;28;20474;-61
2023/06/05 08:40:50;;;;;;;;;;;;;;;;;;5062245;28;20285;-62
2023/06/05 08:43:16;;;;;;;;;;;;;;;;;;5073065;28;20028;-62
2023/06/05 08:46:46;;;;;;;;;;;;;;;;;;5130112;27;19927;-62
2023/06/05 08:49:12;;;;;;;;;;;;;;;;;;5109606;27;19916;-64
2023/06/05 08:51:38;;;;;;;;;;;;;;;;;;5115249;27;19920;-61
2023/06/05 08:56:38;;;;;;;;;;;;;;;;;;5167449;27;19919;-63
2023/06/05 08:59:04;;;;;;;;;;;;;;;;;;5164024;27;19918;-62
2023/06/05 09:01:30;;;;;;;;;;;;;;;;;;5141091;27;20001;-62
2023/06/05 09:03:56;;;;;;;;;;;;;;;;;;5164772;27;19911;-62
2023/06/05 09:06:22;;;;;;;;;;;;;;;;;;5165952;27;19976;-63
2023/06/05 09:08:48;;;;;;;;;;;;;;;;;;5168756;27;19958;-62
2023/06/05 09:11:14;;;;;;;;;;;;;;;;;;5165826;27;19938;-62
2023/06/05 09:13:40;;;;;;;;;;;;;;;;;;5164696;27;20453;-61
2023/06/05 09:16:05;;;;;;;;;;;;;;;;;;5158881;27;20354;-62
2023/06/05 09:18:36;;;;;;;;;;;;;;;;;;5163695;27;20297;-62
2023/06/05 09:21:02;;;;;;;;;;;;;;;;;;5164173;27;19941;-61
2023/06/05 09:23:28;;;;;;;;;;;;;;;;;;5164812;27;19962;-61
2023/06/05 09:25:54;;;;;;;;;;;;;;;;;;5166340;27;19911;-62
2023/06/05 09:28:20;;;;;;;;;;;;;;;;;;5166675;27;19907;-62
2023/06/05 09:30:46;;;;;;;;;;;;;;;;;;5147162;27;20328;-63
2023/06/05 09:33:15;;;;;;;;;;;;;;;;;;5145163;27;19907;-62
2023/06/05 09:35:41;;;;;;;;;;;;;;;;;;5154244;27;19968;-63
2023/06/05 09:38:07;;;;;;;;;;;;;;;;;;5162968;27;19915;-61
2023/06/05 09:40:33;;;;;;;;;;;;;;;;;;5166096;27;19911;-62
2023/06/05 09:42:59;;;;;;;;;;;;;;;;;;5166934;27;19917;-62
2023/06/05 09:45:24;;;;;;;;;;;;;;;;;;5166305;27;19919;-62
2023/06/05 09:47:51;;;;;;;;;;;;;;;;;;5165774;27;19915;-62
2023/06/05 09:50:17;;;;;;;;;;;;;;;;;;5160578;27;20373;-61
2023/06/05 09:52:43;;;;;;;;;;;;;;;;;;5139995;27;19911;-62
2023/06/05 09:55:08;;;;;;;;;;;;;;;;;;5168573;27;19964;-62
2023/06/05 09:57:35;;;;;;;;;;;;;;;;;;5169481;27;20001;-61
2023/06/05 10:00:06;;;;;;;416.77;262.02;;;;;;;;;;5162219;27;20395;-62
2023/06/05 10:02:32;;;;;;;;;;;;;;;;;;5163141;27;20018;-61
2023/06/05 10:04:58;;;;;;;;;;;;;;;;;;5164401;27;19914;-62
2023/06/05 10:07:24;;;;;;;;;;;;;;;;;;5153219;27;19949;-62
2023/06/05 10:09:50;;;;;;;;;;;;;;;;;;5150857;27;19922;-62
2023/06/05 10:12:16;;;;;;;;;;;;;;;;;;5131805;27;19907;-62
2023/06/05 10:14:42;;;;;;;;;;;;;;;;;;5148467;27;19948;-60
2023/06/05 10:17:08;;;;;;;;;;;;;;;;;;5150811;27;20321;-62
2023/06/05 10:19:34;;;;;;;;;;;;;;;;;;5151024;27;19911;-61
2023/06/05 10:22:00;;;;;;;;;;;;;;;;;;5148864;27;19932;-61
2023/06/05 10:24:26;;;;;;;;;;;;;;;;;;5149264;27;20347;-61
2023/06/05 10:26:53;;;;;;;;;;;;;;;;;;5150610;27;19907;-61
2023/06/05 10:29:18;;;;;;;;;;;;;;;;;;5150607;27;19911;-61
2023/06/05 10:31:45;;;;;;;;;;;;;;;;;;5151170;27;19945;-61
2023/06/05 10:34:10;;;;;;;;;;;;;;;;;;5151602;27;20449;-61
2023/06/05 10:36:40;;;;;;;;;;;;;;;;;;5132245;27;19911;-61
2023/06/05 10:39:06;;;;;;;;;;;;;;;;;;5143560;27;19914;-61
2023/06/05 10:41:31;;;;;;;;;;;;;;;;;;5151588;27;19911;-60
2023/06/05 10:43:58;;;;;;;;;;;;;;;;;;5150495;27;19922;-61
2023/06/05 10:46:24;;;;;;;;;;;;;;;;;;5150958;27;20529;-61
2023/06/05 10:48:50;;;;;;;;;;;;;;;;;;5151736;27;19912;-61
2023/06/05 10:51:16;;;;;;;;;;;;;;;;;;5132940;27;19903;-61
2023/06/05 10:53:42;;;;;;;;;;;;;;;;;;5154483;27;19910;-60
2023/06/05 10:56:08;;;;;;;;;;;;;;;;;;5148486;27;19974;-61
2023/06/05 10:58:34;;;;;;;;;;;;;;;;;;5151834;27;19987;-60
2023/06/05 11:00:59;;;;;;;;;;;;;;;;;;5151722;27;19913;-61
2023/06/05 11:03:26;;;;;;;;;;;;;;;;;;5145958;27;20009;-61
2023/06/05 11:05:52;;;;;;;;;;;;;;;;;;5151103;27;19911;-61
2023/06/05 11:08:19;;;;;;;;;;;;;;;;;;5151736;27;19934;-61
2023/06/05 11:10:46;;;;;;;;;;;;;;;;;;5133714;27;20370;-61
2023/06/05 11:13:13;;;;;;;;;;;;;;;;;;5134433;27;20259;-61
2023/06/05 11:15:39;;;;;;;;;;;;;;;;;;5123559;27;20893;-61
2023/06/05 11:18:05;;;;;;;;;;;;;;;;;;5148324;27;19915;-61
2023/06/05 11:20:31;;;;;;;;;;;;;;;;;;5152516;27;19914;-61
2023/06/05 11:22:57;;;;;;;;;;;;;;;;;;5150463;27;19911;-61
2023/06/05 11:25:24;;;;;;;;;;;;;;;;;;5133502;27;19959;-60
2023/06/05 11:27:50;;;;;;;;;;;;;;;;;;5153781;27;19902;-60
2023/06/05 11:30:16;;;;;;;;;;;;;;;;;;5130174;27;20290;-60
2023/06/05 11:32:42;;;;;;;;;;;;;;;;;;5153498;27;20401;-61
2023/06/05 11:35:08;;;;;;;;;;;;;;;;;;5149348;27;19914;-60
2023/06/05 11:37:34;;;;;;;;;;;;;;;;;;5146354;27;20278;-60
2023/06/05 11:40:00;;;;;;;;;;;;;;;;;;5129116;27;19915;-61
2023/06/05 11:42:26;;;;;;;;;;;;;;;;;;5148975;27;19914;-60
2023/06/05 11:44:52;;;;;;;;;;;;;;;;;;5149802;27;19903;-61
2023/06/05 11:47:18;;;;;;;;;;;;;;;;;;5129847;27;20026;-60
2023/06/05 11:49:44;;;;;;;;;;;;;;;;;;5150948;27;19925;-60
2023/06/05 11:52:10;;;;;;;;;;;;;;;;;;5150252;27;19903;-60
2023/06/05 11:54:45;;;;;;;;;;;;;;;;;;5132898;27;19921;-60
2023/06/05 11:57:13;;;;;;;;;;;;;;;;;;5150749;27;20010;-63
2023/06/05 11:59:39;;;;;;;;;;;;;;;;;;5144762;27;19913;-63
2023/06/05 12:02:05;;;;;;;;;;;;;;;;;;5133553;27;19911;-63
2023/06/05 12:04:30;;;;;;;;;;;;;;;;;;5152150;27;20394;-65
2023/06/05 12:06:57;;;;;;;;;;;;;;;;;;5132245;27;19907;-63
2023/06/05 12:09:23;;;;;;;;;;;;;;;;;;5150108;27;19907;-63
2023/06/05 12:11:49;;;;;;;;;;;;;;;;;;5130562;27;20293;-62
2023/06/05 12:14:15;;;;;;;;;;;;;;;;;;5149970;27;19951;-63
2023/06/05 12:16:43;;;;;;;;;;;;;;;;;;5148078;27;19907;-62
2023/06/05 12:19:09;;;;;;;;;;;;;;;;;;5145930;27;19907;-63
2023/06/05 12:21:36;;;;;;;;;;;;;;;;;;5143680;27;19918;-63
2023/06/05 12:24:02;;;;;;;;;;;;;;;;;;5134311;27;19911;-63
2023/06/05 12:26:32;;;;;;;;;;;;;;;;;;5152725;27;19911;-63
2023/06/05 12:28:58;;;;;;;;;;;;;;;;;;5152860;27;19922;-63
2023/06/05 12:31:24;;;;;;;;;;;;;;;;;;5152237;27;21511;-62
2023/06/05 12:33:50;;;;;;;;;;;;;;;;;;5152681;27;19981;-63
2023/06/05 12:36:16;;;;;;;;;;;;;;;;;;5152373;27;20370;-63
2023/06/05 12:38:42;;;;;;;;;;;;;;;;;;5133983;27;20298;-63
2023/06/05 12:41:08;;;;;;;;;;;;;;;;;;5134159;27;19903;-62
2023/06/05 12:43:34;;;;;;;;;;;;;;;;;;5152362;27;19914;-63
2023/06/05 12:46:00;;;;;;;;;;;;;;;;;;5152297;27;19915;-62
2023/06/05 12:48:26;;;;;;;;;;;;;;;;;;5151718;27;19929;-62
2023/06/05 12:50:54;;;;;;;;;;;;;;;;;;5151673;27;19989;-63
2023/06/05 12:53:19;;;;;;;;;;;;;;;;;;5150124;27;19929;-62
2023/06/05 12:55:45;;;;;;;;;;;;;;;;;;5150971;27;19915;-62
2023/06/05 12:58:11;;;;;;;;;;;;;;;;;;5148737;27;20426;-63
2023/06/05 13:00:38;;;;;;;;;;;;;;;;;;5151632;27;20410;-62
2023/06/05 13:03:04;;;;;;;;;;;;;;;;;;5150926;27;20229;-63
2023/06/05 13:05:31;;;;;;;;;;;;;;;;;;5150129;27;19918;-64
2023/06/05 13:07:57;;;;;;;;;;;;;;;;;;5152652;27;19914;-64
2023/06/05 13:10:23;;;;;;;;;;;;;;;;;;5154178;27;19907;-64
2023/06/05 13:12:49;;;;;;;;;;;;;;;;;;5154636;27;19903;-63
2023/06/05 13:15:15;;;;;;;;;;;;;;;;;;5154848;27;19911;-63
2023/06/05 13:17:41;;;;;;;;;;;;;;;;;;5136093;27;19938;-63
2023/06/05 13:20:10;;;;;;;;;;;;;;;;;;5153439;27;20081;-63
2023/06/05 13:22:36;;;;;;;;;;;;;;;;;;5151395;27;20363;-65
2023/06/05 13:25:02;;;;;;;;;;;;;;;;;;5151238;27;20129;-64
2023/06/05 13:27:28;;;;;;;;;;;;;;;;;;5151945;27;19910;-64
2023/06/05 13:29:54;;;;;;;;;;;;;;;;;;5151634;27;20373;-64
2023/06/05 13:32:20;;;;;;;;;;;;;;;;;;5151836;27;20014;-64
2023/06/05 13:34:46;;;;;;;;;;;;;;;;;;5152158;27;19951;-64
2023/06/05 13:37:12;;;;;;;;;;;;;;;;;;5152209;27;19911;-64
2023/06/05 13:39:38;;;;;;;;;;;;;;;;;;5134093;27;19903;-64
2023/06/05 13:42:04;;;;;;;;;;;;;;;;;;5154549;27;19915;-64
2023/06/05 13:44:30;;;;;;;;;;;;;;;;;;5157740;27;20354;-64
2023/06/05 13:46:57;;;;;;;;;;;;;;;;;;5158642;27;19903;-64
2023/06/05 13:49:23;;;;;;;;;;;;;;;;;;5158913;27;19910;-64
2023/06/05 13:51:49;;;;;;;;;;;;;;;;;;5158944;27;20269;-64
2023/06/05 13:54:14;;;;;;;;;;;;;;;;;;5158086;27;20270;-64
2023/06/05 13:56:40;;;;;;;;;;;;;;;;;;5158620;27;19955;-64
2023/06/05 13:59:06;;;;;;;;;;;;;;;;;;5139681;27;19934;-66
2023/06/05 14:01:32;;;;;;;;;;;;;;;;;;5158619;27;19903;-64
2023/06/05 14:03:58;;;;;;;;;;;;;;;;;;5139999;27;19903;-63
2023/06/05 14:06:24;;;;;;;;;;;;;;;;;;5158093;27;19907;-63
2023/06/05 14:08:50;;;;;;;;;;;;;;;;;;5158409;27;19903;-63
2023/06/05 14:11:16;;;;;;;;;;;;;;;;;;5158474;27;19926;-64
2023/06/05 14:13:42;;;;;;;;;;;;;;;;;;5158016;27;20278;-63
2023/06/05 14:16:10;;;;;;;;;;;;;;;;;;5158328;27;20282;-63
2023/06/05 14:18:36;;;;;;;;;;;;;;;;;;5158312;27;19946;-63
2023/06/05 14:21:02;;;;;;;;;;;;;;;;;;5157860;27;19938;-63
2023/06/05 14:23:28;;;;;;;;;;;;;;;;;;5158326;27;19907;-63
2023/06/05 14:25:54;;;;;;;;;;;;;;;;;;5158207;27;19994;-63
2023/06/05 14:28:22;;;;;;;;;;;;;;;;;;5157040;27;20369;-63
2023/06/05 14:30:48;;;;;;;;;;;;;;;;;;5158002;27;19910;-63
2023/06/05 14:33:14;;;;;;;;;;;;;;;;;;5158021;27;20360;-63
2023/06/05 14:35:40;;;;;;;;;;;;;;;;;;5157536;27;19934;-63
2023/06/05 14:38:06;;;;;;;;;;;;;;;;;;5157904;27;19902;-64
2023/06/05 14:40:33;;;;;;;;;;;;;;;;;;5157994;27;20011;-64
2023/06/05 14:42:59;;;;;;;;;;;;;;;;;;5157516;27;19907;-64
2023/06/05 14:45:25;;;;;;;;;;;;;;;;;;5157868;27;19903;-64
2023/06/05 14:47:51;;;;;;;;;;;;;;;;;;5158123;27;20435;-64
2023/06/05 14:50:17;;;;;;;;;;;;;;;;;;5138710;27;19926;-64
2023/06/05 14:52:43;;;;;;;;;;;;;;;;;;5157553;27;19902;-64
2023/06/05 14:55:09;;;;;;;;;;;;;;;;;;5135311;27;19922;-64
2023/06/05 14:57:35;;;;;;;;;;;;;;;;;;5136439;27;19964;-64
2023/06/05 15:00:04;;;;;;;;;;;;;;;;;;5136775;27;20363;-64
2023/06/05 15:02:30;;;;;;;;;;;;;;;;;;5136367;27;19903;-64
2023/06/05 15:04:58;;;;;;;;;;;;;;;;;;5136665;27;19903;-64
2023/06/05 15:07:24;;;;;;;;;;;;;;;;;;5136532;27;20260;-64
2023/06/05 15:09:50;;;;;;;;;;;;;;;;;;5136239;27;19948;-64
2023/06/05 15:12:16;;;;;;;;;;;;;;;;;;5136854;27;19903;-64
2023/06/05 15:14:42;;;;;;;;;;;;;;;;;;5135110;27;19914;-64
2023/06/05 15:17:08;;;;;;;;;;;;;;;;;;5136088;27;19907;-64
2023/06/05 15:19:34;;;;;;;;;;;;;;;;;;5136451;27;19949;-64
2023/06/05 15:22:03;;;;;;;;;;;;;;;;;;5136437;27;19904;-63
2023/06/05 15:24:29;;;;;;;;;;;;;;;;;;5135935;27;19903;-63
2023/06/05 15:26:55;;;;;;;;;;;;;;;;;;5136431;27;19904;-63
2023/06/05 15:29:21;;;;;;;;;;;;;;;;;;5136127;27;19910;-63
2023/06/05 15:31:47;;;;;;;;;;;;;;;;;;5135682;27;19911;-63
2023/06/05 15:34:13;;;;;;;;;;;;;;;;;;5136009;27;19950;-63
2023/06/05 15:36:39;;;;;;;;;;;;;;;;;;5136213;27;20006;-63
2023/06/05 15:39:05;;;;;;;;;;;;;;;;;;5135589;27;19907;-64
2023/06/05 15:41:31;;;;;;;;;;;;;;;;;;5136005;27;20280;-63
2023/06/05 15:43:57;;;;;;;;;;;;;;;;;;5135955;27;19903;-63
2023/06/05 15:46:23;;;;;;;;;;;;;;;;;;5134196;27;19910;-63
2023/06/05 15:48:49;;;;;;;;;;;;;;;;;;5135826;27;19903;-63
2023/06/05 15:51:15;;;;;;;;;;;;;;;;;;5135946;27;19911;-63
2023/06/05 15:53:41;;;;;;;;;;;;;;;;;;5135377;27;19903;-63
2023/06/05 15:56:07;;;;;;;;;;;;;;;;;;5134257;27;19921;-63
2023/06/05 15:58:33;;;;;;;;;;;;;;;;;;5135287;27;20348;-64
2023/06/05 16:00:59;;;;;;;;;;;;;;;;;;5135693;27;20420;-64
2023/06/05 16:03:25;;;;;;;;;;;;;;;;;;5135594;27;20279;-63
2023/06/05 16:05:51;;;;;;;;;;;;;;;;;;5134570;27;19911;-63
2023/06/05 16:08:19;;;;;;;;;;;;;;;;;;5135506;27;20287;-64
2023/06/05 16:10:44;;;;;;;;;;;;;;;;;;5135990;27;19904;-63
2023/06/05 16:13:11;;;;;;;;;;;;;;;;;;5134822;27;20271;-63
2023/06/05 16:15:39;;;;;;;;;;;;;;;;;;5135267;27;19919;-64
2023/06/05 16:18:05;;;;;;;;;;;;;;;;;;5135680;27;19903;-62
2023/06/05 16:20:31;;;;;;;;;;;;;;;;;;5134757;27;19903;-62
2023/06/05 16:22:57;;;;;;;;;;;;;;;;;;5133914;27;19930;-62
2023/06/05 16:25:23;;;;;;;;;;;;;;;;;;5135109;27;19903;-63
2023/06/05 16:27:49;;;;;;;;;;;;;;;;;;5134784;27;19911;-63
2023/06/05 16:30:15;;;;;;;;;;;;;;;;;;5135166;27;19904;-63
2023/06/05 16:32:41;;;;;;;;;;;;;;;;;;5135449;27;19903;-64
2023/06/05 16:35:07;;;;;;;;;;;;;;;;;;5134659;27;19919;-64
2023/06/05 16:37:33;;;;;;;;;;;;;;;;;;5135070;27;19918;-64
2023/06/05 16:39:59;;;;;;;;;;;;;;;;;;5135076;27;20005;-64
2023/06/05 16:43:19;;;;;;;;;;;;;;;;;;5017396;27;3771392;-62
2023/06/05 16:45:45;;;;;;;;;;;;;;;;;;5134277;27;19918;-63
2023/06/05 16:48:11;;;;;;;;;;;;;;;;;;5133876;27;19907;-64
2023/06/05 16:50:37;;;;;;;;;;;;;;;;;;5152824;27;19907;-63
2023/06/05 16:53:03;;;;;;;;;;;;;;;;;;5152795;27;19907;-63
2023/06/05 16:55:29;;;;;;;;;;;;;;;;;;5152367;27;20390;-63
2023/06/05 16:57:55;;;;;;;;;;;;;;;;;;5152701;27;20411;-64
2023/06/05 17:00:21;;;;;;;;;;;;;;;;;;5152601;27;19908;-64
2023/06/05 17:02:47;;;;;;;;;;;;;;;;;;5152129;27;20012;-63
2023/06/05 17:05:12;;;;;;;;;;;;;;;;;;5152430;27;19952;-64
2023/06/05 17:07:38;;;;;;;;;;;;;;;;;;5152444;27;19915;-64
2023/06/05 17:10:05;;;;;;;;;;;;;;;;;;5133558;27;19907;-64
2023/06/05 17:12:31;;;;;;;;;;;;;;;;;;5152323;27;19939;-64
2023/06/05 17:14:57;;;;;;;;;;;;;;;;;;5152560;27;19911;-64
2023/06/05 17:17:22;;;;;;;;;;;;;;;;;;5151962;27;19908;-64
2023/06/05 17:19:48;;;;;;;;;;;;;;;;;;5152210;27;19995;-64
2023/06/05 17:22:15;;;;;;;;;;;;;;;;;;5152237;27;19915;-64
2023/06/05 17:24:41;;;;;;;;;;;;;;;;;;5151932;27;19908;-64
2023/06/05 17:27:25;;;;;;;;;;;;;;;;;;5071700;28;19920;-62
2023/06/05 17:29:51;;;;;;;;;;;;;;;;;;5071583;28;19955;-63
2023/06/05 17:32:17;;;;;;;;;;;;;;;;;;5069427;28;19908;-63
2023/06/05 17:36:31;;;;;;;;;;;;;;;;;;5153306;27;20003;-63
2023/06/05 17:38:57;;;;;;;;;;;;;;;;;;5134047;27;19915;-64
2023/06/05 17:41:23;;;;;;;;;;;;;;;;;;5134194;27;19956;-64
2023/06/05 17:43:49;;;;;;;;;;;;;;;;;;5152798;27;20378;-63
2023/06/05 17:46:15;;;;;;;;;;;;;;;;;;5152397;27;19985;-64
2023/06/05 17:48:41;;;;;;;;;;;;;;;;;;5152992;27;19911;-63
2023/06/05 17:51:07;;;;;;;;;;;;;;;;;;5152239;27;20386;-64
2023/06/05 17:53:33;;;;;;;;;;;;;;;;;;5152885;27;20256;-63
2023/06/05 17:55:58;;;;;;;;;;;;;;;;;;5152438;27;19926;-64
2023/06/05 17:58:24;;;;;;;;;;;;;;;;;;5152003;27;19907;-64
2023/06/05 18:00:50;;;;;;;;;;;;;;;;;;5152257;27;19930;-63
2023/06/05 18:03:17;;;;;;;;;;;;;;;;;;5152384;27;19914;-63
2023/06/05 18:05:59;;;;;;;;;;;;;;;;;;5091109;27;19919;-62
2023/06/05 18:08:25;;;;;;;;;;;;;;;;;;5091570;28;19938;-63